N301AZ KVNY-KSDL
Flight info
| Callsign | N301AZ |
|---|---|
| Flight time | 0h 59m |
| Altitude | 35000 |
| Route | HARYS5 BLH ARLIN4 |
| Aircraft | E55P/M-SBDGRW/LB2 |
Departure
| Time | 2026-05-04 00:54 |
|---|---|
| Airport | Van Nuys Airport (KVNY) |
Arrival
| Time | 2026-05-04 01:53 |
|---|---|
| Airport | Scottsdale Airport (KSDL) |
| Time | Latitude | Longitude | Altitude | Speed | Heading |
|---|---|---|---|---|---|
| 2026-05-04 00:30 | 34.20503 | -118.48766 | 768 ft | 0 kts | 315° |
| 2026-05-04 00:44 | 34.20507 | -118.48770 | 767 ft | 2 kts | 324° |
| 2026-05-04 00:44 | 34.20541 | -118.48784 | 768 ft | 6 kts | 346° |
| 2026-05-04 00:45 | 34.20584 | -118.48795 | 768 ft | 6 kts | 348° |
| 2026-05-04 00:45 | 34.20643 | -118.48802 | 770 ft | 9 kts | 2° |
| 2026-05-04 00:45 | 34.20711 | -118.48797 | 771 ft | 10 kts | 12° |
| 2026-05-04 00:45 | 34.20792 | -118.48773 | 773 ft | 12 kts | 6° |
| 2026-05-04 00:46 | 34.20869 | -118.48790 | 774 ft | 10 kts | 334° |
| 2026-05-04 00:46 | 34.20947 | -118.48804 | 776 ft | 12 kts | 355° |
| 2026-05-04 00:46 | 34.21026 | -118.48821 | 777 ft | 11 kts | 327° |
| 2026-05-04 00:46 | 34.21109 | -118.48846 | 779 ft | 13 kts | 356° |
| 2026-05-04 00:47 | 34.21209 | -118.48856 | 781 ft | 14 kts | 355° |
| 2026-05-04 00:47 | 34.21304 | -118.48864 | 783 ft | 13 kts | 355° |
| 2026-05-04 00:47 | 34.21404 | -118.48874 | 785 ft | 13 kts | 356° |
| 2026-05-04 00:47 | 34.21495 | -118.48882 | 787 ft | 12 kts | 356° |
| 2026-05-04 00:48 | 34.21585 | -118.48899 | 789 ft | 13 kts | 347° |
| 2026-05-04 00:48 | 34.21675 | -118.48923 | 792 ft | 12 kts | 349° |
| 2026-05-04 00:48 | 34.21761 | -118.48937 | 794 ft | 12 kts | 355° |
| 2026-05-04 00:48 | 34.21846 | -118.48946 | 795 ft | 11 kts | 353° |
| 2026-05-04 00:49 | 34.21891 | -118.49004 | 797 ft | 10 kts | 269° |
| 2026-05-04 00:49 | 34.21886 | -118.49087 | 797 ft | 9 kts | 260° |
| 2026-05-04 00:49 | 34.21841 | -118.49120 | 796 ft | 5 kts | 176° |
| 2026-05-04 00:49 | 34.21830 | -118.49119 | 796 ft | 0 kts | 176° |
| 2026-05-04 00:52 | 34.21806 | -118.49116 | 795 ft | 5 kts | 175° |
| 2026-05-04 00:52 | 34.21802 | -118.49116 | 795 ft | 0 kts | 175° |
| 2026-05-04 00:53 | 34.21801 | -118.49116 | 795 ft | 0 kts | 175° |
| 2026-05-04 00:53 | 34.21694 | -118.49104 | 793 ft | 49 kts | 177° |
| 2026-05-04 00:53 | 34.21066 | -118.49047 | 781 ft | 126 kts | 178° |
| 2026-05-04 00:53 | 34.20098 | -118.48916 | 1245 ft | 150 kts | 175° |
| 2026-05-04 00:54 | 34.18970 | -118.48710 | 1757 ft | 177 kts | 175° |
| 2026-05-04 00:54 | 34.17770 | -118.48198 | 2393 ft | 200 kts | 142° |
| 2026-05-04 00:54 | 34.16945 | -118.46787 | 3126 ft | 213 kts | 117° |
| 2026-05-04 00:54 | 34.16269 | -118.45180 | 3910 ft | 217 kts | 114° |
| 2026-05-04 00:55 | 34.16071 | -118.43458 | 4888 ft | 214 kts | 77° |
| 2026-05-04 00:55 | 34.16825 | -118.41954 | 5684 ft | 219 kts | 36° |
| 2026-05-04 00:55 | 34.18271 | -118.41337 | 6359 ft | 229 kts | 4° |
| 2026-05-04 00:55 | 34.19870 | -118.41231 | 7098 ft | 240 kts | 0° |
| 2026-05-04 00:56 | 34.21603 | -118.41098 | 7722 ft | 257 kts | 2° |
| 2026-05-04 00:56 | 34.23421 | -118.40949 | 8411 ft | 269 kts | 1° |
| 2026-05-04 00:56 | 34.25326 | -118.40787 | 9093 ft | 281 kts | 1° |
| 2026-05-04 00:56 | 34.27312 | -118.40623 | 9807 ft | 292 kts | 2° |
| 2026-05-04 00:57 | 34.29350 | -118.40435 | 10523 ft | 301 kts | 1° |
| 2026-05-04 00:57 | 34.31482 | -118.40224 | 11190 ft | 312 kts | 5° |
| 2026-05-04 00:57 | 34.33617 | -118.39661 | 12044 ft | 314 kts | 16° |
| 2026-05-04 00:57 | 34.35641 | -118.38745 | 12599 ft | 318 kts | 21° |
| 2026-05-04 00:58 | 34.37713 | -118.37690 | 12928 ft | 327 kts | 21° |
| 2026-05-04 00:58 | 34.39835 | -118.36591 | 13023 ft | 340 kts | 21° |
| 2026-05-04 00:58 | 34.42052 | -118.35449 | 13034 ft | 353 kts | 22° |
| 2026-05-04 00:58 | 34.44376 | -118.34224 | 13036 ft | 373 kts | 22° |
| 2026-05-04 00:59 | 34.46776 | -118.32835 | 13021 ft | 394 kts | 33° |
| 2026-05-04 00:59 | 34.48853 | -118.30683 | 13055 ft | 392 kts | 39° |
| 2026-05-04 00:59 | 34.50939 | -118.28649 | 13391 ft | 380 kts | 41° |
| 2026-05-04 00:59 | 34.52945 | -118.26628 | 13749 ft | 372 kts | 39° |
| 2026-05-04 01:00 | 34.54924 | -118.24641 | 14110 ft | 367 kts | 39° |
| 2026-05-04 01:00 | 34.56879 | -118.22683 | 14436 ft | 364 kts | 39° |
| 2026-05-04 01:00 | 34.58844 | -118.20715 | 14757 ft | 362 kts | 39° |
| 2026-05-04 01:00 | 34.60798 | -118.18749 | 15120 ft | 371 kts | 38° |
| 2026-05-04 01:01 | 34.62797 | -118.16750 | 15777 ft | 376 kts | 37° |
| 2026-05-04 01:01 | 34.64800 | -118.14727 | 16611 ft | 375 kts | 37° |
| 2026-05-04 01:01 | 34.66477 | -118.12333 | 17358 ft | 380 kts | 62° |
| 2026-05-04 01:01 | 34.67229 | -118.09309 | 17993 ft | 382 kts | 83° |
| 2026-05-04 01:02 | 34.67701 | -118.06110 | 18527 ft | 390 kts | 80° |
| 2026-05-04 01:02 | 34.68226 | -118.02826 | 19111 ft | 396 kts | 80° |
| 2026-05-04 01:02 | 34.68765 | -117.99576 | 19743 ft | 399 kts | 82° |
| 2026-05-04 01:02 | 34.68717 | -117.96234 | 20277 ft | 394 kts | 110° |
| 2026-05-04 01:03 | 34.67696 | -117.93266 | 20857 ft | 385 kts | 125° |
| 2026-05-04 01:03 | 34.66498 | -117.90305 | 21405 ft | 391 kts | 125° |
| 2026-05-04 01:03 | 34.65292 | -117.87305 | 21835 ft | 400 kts | 124° |
| 2026-05-04 01:03 | 34.64107 | -117.84285 | 22452 ft | 401 kts | 124° |
| 2026-05-04 01:04 | 34.62899 | -117.81209 | 22900 ft | 407 kts | 124° |
| 2026-05-04 01:04 | 34.61683 | -117.78107 | 23426 ft | 409 kts | 124° |
| 2026-05-04 01:04 | 34.60456 | -117.74986 | 23895 ft | 414 kts | 124° |
| 2026-05-04 01:04 | 34.59212 | -117.71834 | 24386 ft | 416 kts | 125° |
| 2026-05-04 01:05 | 34.57979 | -117.68707 | 24919 ft | 418 kts | 124° |
| 2026-05-04 01:05 | 34.56721 | -117.65494 | 25440 ft | 421 kts | 124° |
| 2026-05-04 01:05 | 34.55439 | -117.62283 | 25934 ft | 424 kts | 125° |
| 2026-05-04 01:05 | 34.54175 | -117.59060 | 26418 ft | 426 kts | 126° |
| 2026-05-04 01:06 | 34.52909 | -117.55846 | 26913 ft | 428 kts | 125° |
| 2026-05-04 01:06 | 34.51621 | -117.52602 | 27443 ft | 429 kts | 124° |
| 2026-05-04 01:06 | 34.50345 | -117.49367 | 28000 ft | 428 kts | 126° |
| 2026-05-04 01:06 | 34.49062 | -117.46139 | 28545 ft | 428 kts | 125° |
| 2026-05-04 01:07 | 34.47769 | -117.42876 | 29108 ft | 427 kts | 125° |
| 2026-05-04 01:07 | 34.46494 | -117.39671 | 29647 ft | 425 kts | 126° |
| 2026-05-04 01:07 | 34.45204 | -117.36429 | 30159 ft | 425 kts | 126° |
| 2026-05-04 01:07 | 34.43943 | -117.33211 | 30613 ft | 425 kts | 128° |
| 2026-05-04 01:08 | 34.42651 | -117.30016 | 31013 ft | 427 kts | 128° |
| 2026-05-04 01:08 | 34.41383 | -117.26803 | 31420 ft | 427 kts | 128° |
| 2026-05-04 01:08 | 34.40080 | -117.23565 | 31813 ft | 428 kts | 128° |
| 2026-05-04 01:08 | 34.38782 | -117.20322 | 32201 ft | 429 kts | 128° |
| 2026-05-04 01:09 | 34.37499 | -117.17112 | 32542 ft | 431 kts | 128° |
| 2026-05-04 01:09 | 34.36184 | -117.13830 | 32878 ft | 433 kts | 129° |
| 2026-05-04 01:09 | 34.34869 | -117.10541 | 33208 ft | 437 kts | 129° |
| 2026-05-04 01:09 | 34.33542 | -117.07228 | 33581 ft | 439 kts | 130° |
| 2026-05-04 01:10 | 34.32203 | -117.03884 | 33969 ft | 445 kts | 125° |
| 2026-05-04 01:10 | 34.31090 | -117.00394 | 34344 ft | 454 kts | 121° |
| 2026-05-04 01:10 | 34.30000 | -116.96779 | 34791 ft | 456 kts | 120° |
| 2026-05-04 01:10 | 34.28916 | -116.93206 | 34996 ft | 462 kts | 121° |
| 2026-05-04 01:11 | 34.27767 | -116.89495 | 35004 ft | 473 kts | 121° |
| 2026-05-04 01:11 | 34.26603 | -116.85751 | 35020 ft | 484 kts | 120° |
| 2026-05-04 01:11 | 34.25413 | -116.81864 | 35038 ft | 495 kts | 120° |
| 2026-05-04 01:12 | 34.22940 | -116.73889 | 35024 ft | 514 kts | 119° |
| 2026-05-04 01:12 | 34.20386 | -116.65675 | 35002 ft | 531 kts | 120° |
| 2026-05-04 01:13 | 34.17768 | -116.57234 | 34951 ft | 538 kts | 119° |
| 2026-05-04 01:13 | 34.15152 | -116.48823 | 34944 ft | 537 kts | 119° |
| 2026-05-04 01:14 | 34.12509 | -116.40388 | 34913 ft | 539 kts | 120° |
| 2026-05-04 01:14 | 34.09861 | -116.31964 | 34900 ft | 539 kts | 120° |
| 2026-05-04 01:15 | 34.07203 | -116.23515 | 34910 ft | 539 kts | 120° |
| 2026-05-04 01:15 | 34.04551 | -116.15100 | 34921 ft | 538 kts | 120° |
| 2026-05-04 01:16 | 34.01903 | -116.06737 | 34927 ft | 536 kts | 120° |
| 2026-05-04 01:16 | 33.99256 | -115.98388 | 34934 ft | 535 kts | 120° |
| 2026-05-04 01:17 | 33.96604 | -115.90044 | 34908 ft | 535 kts | 120° |
| 2026-05-04 01:17 | 33.93922 | -115.81670 | 34893 ft | 536 kts | 121° |
| 2026-05-04 01:18 | 33.91256 | -115.73302 | 34888 ft | 537 kts | 120° |
| 2026-05-04 01:18 | 33.88563 | -115.64931 | 34893 ft | 538 kts | 121° |
| 2026-05-04 01:19 | 33.85869 | -115.56535 | 34862 ft | 540 kts | 121° |
| 2026-05-04 01:19 | 33.83153 | -115.48099 | 34853 ft | 541 kts | 121° |
| 2026-05-04 01:20 | 33.80410 | -115.39683 | 34839 ft | 544 kts | 120° |
| 2026-05-04 01:20 | 33.77668 | -115.31196 | 34798 ft | 545 kts | 120° |
| 2026-05-04 01:21 | 33.74926 | -115.22755 | 34781 ft | 542 kts | 121° |
| 2026-05-04 01:21 | 33.72190 | -115.14390 | 34773 ft | 541 kts | 120° |
| 2026-05-04 01:22 | 33.69442 | -115.06024 | 34783 ft | 539 kts | 120° |
| 2026-05-04 01:22 | 33.66712 | -114.97685 | 34791 ft | 537 kts | 120° |
| 2026-05-04 01:23 | 33.63981 | -114.89393 | 34795 ft | 536 kts | 120° |
| 2026-05-04 01:23 | 33.61239 | -114.81091 | 34694 ft | 538 kts | 120° |
| 2026-05-04 01:23 | 33.59870 | -114.76910 | 34373 ft | 541 kts | 117° |
| 2026-05-04 01:24 | 33.58874 | -114.72545 | 33807 ft | 552 kts | 108° |
| 2026-05-04 01:24 | 33.58018 | -114.68021 | 33014 ft | 555 kts | 108° |
| 2026-05-04 01:24 | 33.57162 | -114.63528 | 32369 ft | 556 kts | 107° |
| 2026-05-04 01:24 | 33.56284 | -114.59061 | 31730 ft | 555 kts | 107° |
| 2026-05-04 01:25 | 33.55407 | -114.54536 | 31097 ft | 553 kts | 108° |
| 2026-05-04 01:25 | 33.54544 | -114.50112 | 30476 ft | 548 kts | 107° |
| 2026-05-04 01:25 | 33.53684 | -114.45693 | 29879 ft | 542 kts | 107° |
| 2026-05-04 01:25 | 33.52823 | -114.41375 | 29272 ft | 536 kts | 106° |
| 2026-05-04 01:26 | 33.51985 | -114.37009 | 28633 ft | 533 kts | 107° |
| 2026-05-04 01:26 | 33.51131 | -114.32752 | 27937 ft | 531 kts | 107° |
| 2026-05-04 01:26 | 33.50297 | -114.28457 | 27225 ft | 527 kts | 107° |
| 2026-05-04 01:26 | 33.49467 | -114.24252 | 26530 ft | 523 kts | 107° |
| 2026-05-04 01:27 | 33.48622 | -114.20005 | 25812 ft | 518 kts | 108° |
| 2026-05-04 01:27 | 33.47792 | -114.15859 | 25122 ft | 512 kts | 108° |
| 2026-05-04 01:27 | 33.46989 | -114.11752 | 24474 ft | 505 kts | 108° |
| 2026-05-04 01:27 | 33.46180 | -114.07742 | 23821 ft | 498 kts | 107° |
| 2026-05-04 01:28 | 33.45376 | -114.03738 | 23161 ft | 492 kts | 107° |
| 2026-05-04 01:28 | 33.44601 | -113.99799 | 22553 ft | 484 kts | 107° |
| 2026-05-04 01:28 | 33.43818 | -113.95926 | 21948 ft | 476 kts | 107° |
| 2026-05-04 01:28 | 33.43058 | -113.92123 | 21352 ft | 469 kts | 108° |
| 2026-05-04 01:29 | 33.42310 | -113.88369 | 20846 ft | 464 kts | 108° |
| 2026-05-04 01:29 | 33.41554 | -113.84663 | 20597 ft | 457 kts | 107° |
| 2026-05-04 01:29 | 33.40817 | -113.80979 | 20344 ft | 455 kts | 107° |
| 2026-05-04 01:29 | 33.40065 | -113.77284 | 20097 ft | 454 kts | 107° |
| 2026-05-04 01:30 | 33.39328 | -113.73629 | 19856 ft | 452 kts | 107° |
| 2026-05-04 01:30 | 33.38593 | -113.69992 | 19610 ft | 451 kts | 107° |
| 2026-05-04 01:30 | 33.37862 | -113.66392 | 19371 ft | 449 kts | 107° |
| 2026-05-04 01:30 | 33.37123 | -113.62765 | 19132 ft | 446 kts | 107° |
| 2026-05-04 01:31 | 33.36396 | -113.59169 | 18903 ft | 444 kts | 107° |
| 2026-05-04 01:31 | 33.35673 | -113.55608 | 18694 ft | 442 kts | 105° |
| 2026-05-04 01:31 | 33.35598 | -113.51926 | 18446 ft | 446 kts | 83° |
| 2026-05-04 01:31 | 33.36115 | -113.48334 | 18228 ft | 442 kts | 80° |
| 2026-05-04 01:32 | 33.36713 | -113.44734 | 17953 ft | 440 kts | 79° |
| 2026-05-04 01:32 | 33.37322 | -113.41199 | 17714 ft | 437 kts | 79° |
| 2026-05-04 01:32 | 33.37935 | -113.37645 | 17473 ft | 434 kts | 79° |
| 2026-05-04 01:32 | 33.38545 | -113.34109 | 17236 ft | 431 kts | 79° |
| 2026-05-04 01:33 | 33.39148 | -113.30634 | 16992 ft | 429 kts | 79° |
| 2026-05-04 01:33 | 33.39737 | -113.27161 | 16745 ft | 427 kts | 80° |
| 2026-05-04 01:33 | 33.40336 | -113.23708 | 16499 ft | 424 kts | 80° |
| 2026-05-04 01:33 | 33.40919 | -113.20269 | 16210 ft | 422 kts | 81° |
| 2026-05-04 01:34 | 33.41508 | -113.16831 | 15913 ft | 420 kts | 81° |
| 2026-05-04 01:34 | 33.42084 | -113.13436 | 15621 ft | 418 kts | 80° |
| 2026-05-04 01:34 | 33.42672 | -113.10018 | 15295 ft | 416 kts | 81° |
| 2026-05-04 01:34 | 33.43235 | -113.06652 | 14941 ft | 416 kts | 80° |
| 2026-05-04 01:35 | 33.43811 | -113.03299 | 14633 ft | 412 kts | 80° |
| 2026-05-04 01:35 | 33.44379 | -112.99951 | 14340 ft | 409 kts | 80° |
| 2026-05-04 01:35 | 33.44936 | -112.96632 | 14049 ft | 405 kts | 81° |
| 2026-05-04 01:35 | 33.45491 | -112.93360 | 13762 ft | 396 kts | 81° |
| 2026-05-04 01:36 | 33.46022 | -112.90201 | 13499 ft | 378 kts | 81° |
| 2026-05-04 01:36 | 33.46534 | -112.87185 | 13242 ft | 363 kts | 81° |
| 2026-05-04 01:36 | 33.47018 | -112.84295 | 12993 ft | 350 kts | 81° |
| 2026-05-04 01:36 | 33.47491 | -112.81503 | 12743 ft | 340 kts | 81° |
| 2026-05-04 01:37 | 33.47947 | -112.78742 | 12491 ft | 334 kts | 82° |
| 2026-05-04 01:37 | 33.48398 | -112.76041 | 12236 ft | 329 kts | 82° |
| 2026-05-04 01:37 | 33.48845 | -112.73359 | 11980 ft | 325 kts | 82° |
| 2026-05-04 01:37 | 33.49459 | -112.70783 | 11722 ft | 324 kts | 69° |
| 2026-05-04 01:38 | 33.50340 | -112.68327 | 11478 ft | 323 kts | 69° |
| 2026-05-04 01:38 | 33.51229 | -112.65845 | 11235 ft | 324 kts | 69° |
| 2026-05-04 01:38 | 33.52121 | -112.63368 | 11060 ft | 323 kts | 69° |
| 2026-05-04 01:38 | 33.53006 | -112.60899 | 11033 ft | 322 kts | 69° |
| 2026-05-04 01:39 | 33.53875 | -112.58446 | 11030 ft | 320 kts | 69° |
| 2026-05-04 01:39 | 33.54747 | -112.55985 | 10976 ft | 320 kts | 69° |
| 2026-05-04 01:39 | 33.55615 | -112.53542 | 10977 ft | 317 kts | 69° |
| 2026-05-04 01:39 | 33.56473 | -112.51125 | 10977 ft | 316 kts | 69° |
| 2026-05-04 01:40 | 33.57338 | -112.48717 | 10978 ft | 315 kts | 69° |
| 2026-05-04 01:40 | 33.58202 | -112.46298 | 10973 ft | 314 kts | 69° |
| 2026-05-04 01:40 | 33.59053 | -112.43913 | 10960 ft | 314 kts | 70° |
| 2026-05-04 01:40 | 33.59917 | -112.41496 | 10961 ft | 313 kts | 69° |
| 2026-05-04 01:41 | 33.60775 | -112.39105 | 10964 ft | 313 kts | 69° |
| 2026-05-04 01:41 | 33.61644 | -112.36705 | 10963 ft | 313 kts | 69° |
| 2026-05-04 01:41 | 33.62506 | -112.34304 | 10974 ft | 313 kts | 69° |
| 2026-05-04 01:41 | 33.63376 | -112.31921 | 10966 ft | 314 kts | 69° |
| 2026-05-04 01:42 | 33.64230 | -112.29555 | 10801 ft | 305 kts | 69° |
| 2026-05-04 01:42 | 33.65066 | -112.27259 | 10432 ft | 300 kts | 70° |
| 2026-05-04 01:42 | 33.65896 | -112.24998 | 10063 ft | 289 kts | 69° |
| 2026-05-04 01:42 | 33.66700 | -112.22825 | 9692 ft | 280 kts | 70° |
| 2026-05-04 01:43 | 33.67478 | -112.20741 | 9327 ft | 273 kts | 69° |
| 2026-05-04 01:43 | 33.68254 | -112.18687 | 8963 ft | 267 kts | 70° |
| 2026-05-04 01:43 | 33.69008 | -112.16700 | 8604 ft | 262 kts | 69° |
| 2026-05-04 01:43 | 33.69767 | -112.14710 | 8242 ft | 258 kts | 70° |
| 2026-05-04 01:44 | 33.70498 | -112.12787 | 8018 ft | 248 kts | 69° |
| 2026-05-04 01:44 | 33.71203 | -112.10952 | 7986 ft | 241 kts | 70° |
| 2026-05-04 01:44 | 33.71907 | -112.09141 | 7984 ft | 237 kts | 70° |
| 2026-05-04 01:44 | 33.72611 | -112.07354 | 7987 ft | 234 kts | 70° |
| 2026-05-04 01:45 | 33.73292 | -112.05602 | 7994 ft | 232 kts | 69° |
| 2026-05-04 01:45 | 33.73974 | -112.03844 | 7974 ft | 233 kts | 69° |
| 2026-05-04 01:45 | 33.75337 | -112.00304 | 7441 ft | 232 kts | 69° |
| 2026-05-04 01:46 | 33.75792 | -111.99133 | 7248 ft | 231 kts | 69° |
| 2026-05-04 01:46 | 33.76345 | -111.97736 | 7014 ft | 230 kts | 70° |
| 2026-05-04 01:46 | 33.76879 | -111.96381 | 6793 ft | 228 kts | 70° |
| 2026-05-04 01:47 | 33.77553 | -111.94677 | 6517 ft | 227 kts | 69° |
| 2026-05-04 01:47 | 33.78221 | -111.92982 | 6243 ft | 225 kts | 69° |
| 2026-05-04 01:47 | 33.78904 | -111.91280 | 5955 ft | 224 kts | 69° |
| 2026-05-04 01:47 | 33.79356 | -111.89550 | 5664 ft | 213 kts | 97° |
| 2026-05-04 01:48 | 33.78948 | -111.87962 | 5404 ft | 195 kts | 134° |
| 2026-05-04 01:48 | 33.77928 | -111.87070 | 5253 ft | 176 kts | 166° |
| 2026-05-04 01:48 | 33.76767 | -111.86700 | 5115 ft | 165 kts | 171° |
| 2026-05-04 01:48 | 33.75670 | -111.86427 | 4934 ft | 161 kts | 173° |
| 2026-05-04 01:49 | 33.74564 | -111.86237 | 4790 ft | 156 kts | 178° |
| 2026-05-04 01:49 | 33.73499 | -111.86173 | 4573 ft | 154 kts | 181° |
| 2026-05-04 01:49 | 33.72424 | -111.86181 | 4345 ft | 152 kts | 183° |
| 2026-05-04 01:49 | 33.71371 | -111.86209 | 4133 ft | 149 kts | 184° |
| 2026-05-04 01:50 | 33.70420 | -111.86263 | 3926 ft | 127 kts | 186° |
| 2026-05-04 01:50 | 33.69578 | -111.86345 | 3651 ft | 118 kts | 189° |
| 2026-05-04 01:50 | 33.68765 | -111.86455 | 3332 ft | 115 kts | 190° |
| 2026-05-04 01:50 | 33.67997 | -111.86523 | 3107 ft | 109 kts | 186° |
| 2026-05-04 01:51 | 33.67253 | -111.86547 | 2855 ft | 109 kts | 187° |
| 2026-05-04 01:51 | 33.66487 | -111.86593 | 2618 ft | 107 kts | 197° |
| 2026-05-04 01:51 | 33.65854 | -111.86966 | 2409 ft | 102 kts | 230° |
| 2026-05-04 01:51 | 33.65332 | -111.87545 | 2253 ft | 102 kts | 225° |
| 2026-05-04 01:52 | 33.64809 | -111.88133 | 2082 ft | 106 kts | 228° |
| 2026-05-04 01:52 | 33.64269 | -111.88760 | 1926 ft | 109 kts | 230° |
| 2026-05-04 01:52 | 33.63727 | -111.89372 | 1782 ft | 106 kts | 233° |
| 2026-05-04 01:52 | 33.63203 | -111.89992 | 1592 ft | 108 kts | 230° |
| 2026-05-04 01:53 | 33.62686 | -111.90589 | 1489 ft | 93 kts | 224° |
| 2026-05-04 01:53 | 33.62380 | -111.90949 | 1478 ft | 40 kts | 225° |
| 2026-05-04 01:53 | 33.62237 | -111.91112 | 1472 ft | 12 kts | 225° |
| 2026-05-04 01:53 | 33.62228 | -111.91173 | 1471 ft | 8 kts | 306° |